Time;durP1;ratioP1;P1;durP2;ratioP2;P2;SDS_P1;SDS_P2;PMS_P1;PMS_P2;Temp;Humidity;BMP_temperature;BMP_pressure;BME280_temperature;BME280_humidity;BME280_pressure;Samples;Min_cycle;Max_cycle;Signal;HPM_P1;HPM_P2
2022/11/17 00:01:16;;;;;;;29.10;16.58;;;7.90;99.90;;;;;;4977743;28;20053;-69
2022/11/17 00:03:42;;;;;;;;;;;7.90;99.90;;;;;;4995551;28;20167;-69
2022/11/17 00:06:08;;;;;;;34.40;16.98;;;8.30;99.90;;;;;;4996546;28;20275;-69
2022/11/17 00:08:33;;;;;;;25.65;15.90;;;7.90;99.90;;;;;;4998600;28;20100;-69
2022/11/17 00:11:00;;;;;;;28.15;15.27;;;8.00;99.90;;;;;;4995522;28;20042;-69
2022/11/17 00:16:18;;;;;;;22.05;14.57;;;7.90;99.90;;;;;;4990510;28;20053;-69
2022/11/17 00:21:29;;;;;;;25.27;14.45;;;8.20;99.90;;;;;;4977978;28;20115;-69
2022/11/17 00:23:55;;;;;;;23.02;14.65;;;7.90;99.90;;;;;;4993668;28;20270;-68
2022/11/17 00:26:26;;;;;;;22.80;14.45;;;7.90;99.90;;;;;;4976241;28;20069;-70
2022/11/17 00:28:57;;;;;;;25.10;16.05;;;7.90;99.90;;;;;;4993235;28;20070;-69
2022/11/17 00:34:17;;;;;;;21.98;13.80;;;8.00;99.90;;;;;;4993377;28;20057;-68
2022/11/17 00:36:45;;;;;;;23.67;14.98;;;8.00;99.90;;;;;;4996405;28;20112;-69
2022/11/17 00:39:12;;;;;;;26.65;13.75;;;8.20;99.90;;;;;;4991240;28;20184;-69
2022/11/17 00:41:38;;;;;;;23.02;13.68;;;8.00;99.90;;;;;;4992156;28;20436;-68
2022/11/17 00:44:04;;;;;;;20.95;13.75;;;8.00;99.90;;;;;;4972650;28;20103;-68
2022/11/17 00:46:31;;;;;;;18.92;13.00;;;8.00;99.90;;;;;;4993028;28;20696;-69
2022/11/17 00:48:56;;;;;;;23.08;13.68;;;7.90;99.90;;;;;;4981361;28;20174;-69
2022/11/17 00:51:24;;;;;;;22.58;13.52;;;8.00;99.90;;;;;;4993772;28;20602;-69
2022/11/17 00:53:50;;;;;;;20.80;12.93;;;8.00;99.90;;;;;;4977732;28;20426;-69
2022/11/17 00:56:16;;;;;;;20.50;12.90;;;8.00;99.90;;;;;;4994058;28;20384;-69
2022/11/17 00:58:42;;;;;;;20.98;12.60;;;7.90;99.90;;;;;;4995715;28;20481;-68
2022/11/17 01:01:09;;;;;;;20.35;12.98;;;8.00;99.90;;;;;;4996758;28;20439;-68
2022/11/17 01:03:35;;;;;;;18.70;12.30;;;8.00;99.90;;;;;;4996822;28;20125;-69
2022/11/17 01:06:06;;;;;;;21.25;13.18;;;8.00;99.90;;;;;;4993466;28;20419;-69
2022/11/17 01:08:33;;;;;;;21.23;13.25;;;7.90;99.90;;;;;;4993635;28;20096;-69
2022/11/17 01:11:25;;;;;;;16.65;11.88;;;8.10;99.90;;;;;;4994548;28;20050;-68
2022/11/17 01:13:55;;;;;;;19.33;11.73;;;7.90;99.90;;;;;;4990093;28;20050;-69
2022/11/17 01:16:21;;;;;;;18.33;12.38;;;7.90;99.90;;;;;;4992123;28;20060;-68
2022/11/17 01:18:48;;;;;;;19.13;12.57;;;7.90;99.90;;;;;;4991569;28;20176;-69
2022/11/17 01:21:20;;;;;;;19.55;13.23;;;8.00;99.90;;;;;;4994161;28;20145;-69
2022/11/17 01:23:47;;;;;;;16.38;11.73;;;8.00;99.90;;;;;;4994358;28;20061;-69
2022/11/17 01:26:16;;;;;;;18.60;11.55;;;7.90;99.90;;;;;;4994382;28;20073;-70
2022/11/17 01:28:43;;;;;;;18.17;11.93;;;8.00;99.90;;;;;;4994413;28;20046;-69
2022/11/17 01:31:23;;;;;;;18.60;12.55;;;7.90;99.90;;;;;;4995585;28;20046;-69
2022/11/17 01:33:49;;;;;;;17.95;11.40;;;7.90;99.90;;;;;;4995447;28;20050;-68
2022/11/17 01:36:22;;;;;;;18.23;11.85;;;7.90;99.90;;;;;;4994625;28;20049;-69
2022/11/17 01:38:48;;;;;;;16.83;11.15;;;8.00;99.90;;;;;;4992544;28;20147;-70
2022/11/17 01:41:22;;;;;;;19.73;11.57;;;7.90;99.90;;;;;;4980971;28;20149;-69
2022/11/17 01:43:51;;;;;;;17.60;12.10;;;7.90;99.90;;;;;;4994403;28;20104;-70
2022/11/17 01:46:39;;;;;;;15.98;11.55;;;8.00;99.90;;;;;;4977286;28;20050;-69
2022/11/17 01:49:20;;;;;;;14.65;10.23;;;7.90;99.90;;;;;;4981330;28;20893;-69
2022/11/17 01:51:49;;;;;;;;;;;7.90;99.90;;;;;;4981334;28;20669;-69
2022/11/17 01:54:19;;;;;;;18.45;11.98;;;8.40;99.90;;;;;;4991817;28;19930;-69
2022/11/17 01:56:50;;;;;;;17.75;11.10;;;7.90;99.90;;;;;;4980422;28;20140;-68
2022/11/17 01:59:24;;;;;;;19.73;12.05;;;7.90;99.90;;;;;;4992631;28;20065;-68
2022/11/17 02:01:55;;;;;;;18.10;11.57;;;7.90;99.90;;;;;;4992287;28;20513;-68
2022/11/17 02:04:32;;;;;;;21.13;12.52;;;7.90;99.90;;;;;;4994833;28;20061;-68
2022/11/17 02:07:25;;;;;;;17.90;11.45;;;7.90;99.90;;;;;;4994379;28;20054;-69
2022/11/17 02:09:55;;;;;;;22.80;12.32;;;7.90;99.90;;;;;;4961865;28;21455;-68
2022/11/17 02:12:23;;;;;;;18.00;11.43;;;7.90;99.90;;;;;;4992414;28;20541;-69
2022/11/17 02:14:50;;;;;;;22.58;12.57;;;7.90;99.90;;;;;;4993745;28;20791;-69
2022/11/17 02:17:17;;;;;;;18.98;11.88;;;7.80;99.90;;;;;;4990842;28;20393;-69
2022/11/17 02:19:45;;;;;;;18.73;11.82;;;7.90;99.90;;;;;;4994151;28;20103;-69
2022/11/17 02:22:48;;;;;;;20.05;12.18;;;7.80;99.90;;;;;;4994526;28;20154;-68
2022/11/17 02:25:40;;;;;;;17.98;12.00;;;7.90;99.90;;;;;;4992315;28;20049;-69
2022/11/17 02:28:08;;;;;;;18.13;12.65;;;7.80;99.90;;;;;;4980469;28;20635;-69
2022/11/17 02:31:01;;;;;;;21.08;12.07;;;7.80;99.90;;;;;;4993391;28;20050;-68
2022/11/17 02:33:38;;;;;;;17.77;11.60;;;7.80;99.90;;;;;;4965610;28;20053;-69
2022/11/17 02:36:11;;;;;;;18.63;12.18;;;7.80;99.90;;;;;;4991027;28;20046;-68
2022/11/17 02:38:42;;;;;;;19.52;13.13;;;7.80;99.90;;;;;;4991763;28;20042;-69
2022/11/17 02:41:29;;;;;;;17.58;11.80;;;7.80;99.90;;;;;;4991824;28;20038;-69
2022/11/17 02:44:12;;;;;;;19.48;12.77;;;7.70;99.90;;;;;;4975038;28;20042;-68
2022/11/17 02:46:53;;;;;;;18.50;12.57;;;7.70;99.90;;;;;;4990702;28;20458;-68
2022/11/17 02:49:26;;;;;;;21.48;13.48;;;7.70;99.90;;;;;;4992848;28;20048;-68
2022/11/17 02:51:55;;;;;;;18.45;13.38;;;7.70;99.90;;;;;;4991969;28;20045;-69
2022/11/17 02:54:23;;;;;;;19.05;12.70;;;7.60;99.90;;;;;;4990121;28;20042;-68
2022/11/17 02:56:49;;;;;;;19.48;13.80;;;7.60;99.90;;;;;;4991576;28;20049;-69
2022/11/17 02:59:18;;;;;;;19.10;12.98;;;7.60;99.90;;;;;;4992609;28;20053;-69
2022/11/17 03:02:03;;;;;;;19.67;14.07;;;7.60;99.90;;;;;;4993414;28;20422;-69
2022/11/17 03:04:43;;;;;;;19.38;13.60;;;7.60;99.90;;;;;;4991304;28;20132;-69
2022/11/17 03:07:43;;;;;;;22.42;14.32;;;7.50;99.90;;;;;;4989047;28;20077;-68
2022/11/17 03:11:01;;;;;;;22.42;14.27;;;7.50;99.90;;;;;;4977920;28;20044;-70
2022/11/17 03:13:54;;;;;;;20.67;14.40;;;7.50;99.90;;;;;;4975591;28;20545;-69
2022/11/17 03:16:32;;;;;;;19.45;13.30;;;7.50;99.90;;;;;;4988370;28;20042;-69
2022/11/17 03:19:18;;;;;;;22.73;15.07;;;7.50;99.90;;;;;;5005088;28;20491;-70
2022/11/17 03:21:49;;;;;;;19.50;14.57;;;7.40;99.90;;;;;;5005543;28;20042;-70
2022/11/17 03:24:32;;;;;;;22.20;14.95;;;7.50;99.90;;;;;;5005415;28;20037;-69
2022/11/17 03:27:14;;;;;;;19.75;13.90;;;7.50;99.90;;;;;;4991633;28;20042;-70
2022/11/17 03:29:45;;;;;;;23.20;15.70;;;7.40;99.90;;;;;;4991907;28;20362;-70
2022/11/17 03:32:13;;;;;;;21.25;15.50;;;7.50;99.90;;;;;;4992972;28;20042;-70
2022/11/17 03:34:48;;;;;;;20.08;14.70;;;7.40;99.90;;;;;;4990776;28;20115;-70
2022/11/17 03:37:17;;;;;;;20.83;14.80;;;7.40;99.90;;;;;;4992139;28;20045;-70
2022/11/17 03:39:52;;;;;;;21.85;14.70;;;7.40;99.90;;;;;;4993024;28;20459;-70
2022/11/17 03:42:30;;;;;;;20.58;14.38;;;7.40;99.90;;;;;;4992674;28;20105;-70
2022/11/17 03:45:06;;;;;;;21.40;15.52;;;7.50;99.90;;;;;;4975892;28;20149;-70
2022/11/17 03:47:33;;;;;;;22.58;15.35;;;7.40;99.90;;;;;;4992464;28;20038;-69
2022/11/17 03:50:06;;;;;;;21.40;15.13;;;7.40;99.90;;;;;;4992226;28;20045;-70
2022/11/17 03:52:34;;;;;;;20.70;15.10;;;7.40;99.90;;;;;;4991833;28;20049;-69
2022/11/17 03:55:01;;;;;;;18.73;14.38;;;7.40;99.90;;;;;;4979415;28;20034;-70
2022/11/17 03:57:55;;;;;;;19.52;14.52;;;7.30;99.90;;;;;;4991271;28;20041;-70
2022/11/17 04:00:20;;;;;;;22.08;14.45;;;7.30;99.90;;;;;;4993874;28;20411;-70
2022/11/17 04:02:52;;;;;;;19.52;14.63;;;7.40;99.90;;;;;;4992317;28;20053;-71
2022/11/17 04:05:17;;;;;;;;;;;7.40;99.90;;;;;;4993984;28;20918;-70
2022/11/17 04:07:45;;;;;;;19.50;13.18;;;7.30;99.90;;;;;;4992428;28;19949;-70
2022/11/17 04:10:17;;;;;;;18.73;12.43;;;7.40;99.90;;;;;;4993077;28;20042;-69
2022/11/17 04:18:12;;;;;;;17.77;13.00;;;7.30;99.90;;;;;;4993183;28;20113;-70
2022/11/17 04:20:38;;;;;;;17.92;13.38;;;7.30;99.90;;;;;;4992968;28;20507;-70
2022/11/17 04:23:06;;;;;;;19.70;13.93;;;7.30;99.90;;;;;;4992751;28;20057;-70
2022/11/17 04:28:38;;;;;;;18.92;12.95;;;7.20;99.90;;;;;;4992040;28;20053;-69
2022/11/17 04:31:13;;;;;;;21.23;13.95;;;7.20;99.90;;;;;;4993195;28;20042;-70
2022/11/17 04:33:44;;;;;;;17.95;13.38;;;7.40;99.90;;;;;;4991598;28;20046;-70
2022/11/17 04:36:11;;;;;;;18.60;12.40;;;7.20;99.90;;;;;;4997218;28;20046;-71
2022/11/17 04:38:41;;;;;;;20.38;13.05;;;7.20;99.90;;;;;;4995841;28;20157;-71
2022/11/17 04:43:57;;;;;;;22.80;13.55;;;7.20;99.90;;;;;;4994416;28;20507;-70
2022/11/17 04:46:23;;;;;;;17.98;13.95;;;7.10;99.90;;;;;;4979030;28;20073;-71
2022/11/17 04:48:52;;;;;;;17.55;12.88;;;7.10;99.90;;;;;;5001833;28;20463;-70
2022/11/17 04:51:19;;;;;;;19.35;13.55;;;7.10;99.90;;;;;;5002396;28;20043;-71
2022/11/17 04:53:44;;;;;;;19.92;13.05;;;7.10;99.90;;;;;;5000193;28;20049;-71
2022/11/17 04:56:10;;;;;;;18.13;13.38;;;7.10;99.90;;;;;;5006244;28;20045;-70
2022/11/17 04:58:36;;;;;;;17.83;13.02;;;7.10;99.90;;;;;;5006605;28;20061;-71
2022/11/17 05:01:11;;;;;;;18.77;12.20;;;7.00;99.90;;;;;;5004689;28;20115;-70
2022/11/17 05:03:52;;;;;;;16.00;12.10;;;7.00;99.90;;;;;;5000042;28;20497;-72
2022/11/17 05:06:33;;;;;;;15.38;11.18;;;7.00;99.90;;;;;;5003326;28;20046;-70
2022/11/17 05:09:03;;;;;;;16.95;12.30;;;7.00;99.90;;;;;;5007518;28;20050;-70
2022/11/17 05:14:15;;;;;;;17.75;12.23;;;7.10;99.90;;;;;;5004827;28;20446;-71
2022/11/17 05:19:27;;;;;;;17.17;12.85;;;7.50;99.90;;;;;;4975478;28;20053;-71
2022/11/17 05:21:57;;;;;;;17.27;12.40;;;6.90;99.90;;;;;;5006242;28;20984;-70
2022/11/17 05:24:22;;;;;;;16.70;11.70;;;6.90;99.90;;;;;;5007961;28;20466;-71
2022/11/17 05:26:49;;;;;;;15.65;12.05;;;6.90;99.90;;;;;;4989301;28;20130;-70
2022/11/17 05:29:17;;;;;;;17.05;11.65;;;6.90;99.90;;;;;;5008102;28;20038;-70
2022/11/17 05:31:47;;;;;;;16.95;12.70;;;6.80;99.90;;;;;;5005811;28;20084;-69
2022/11/17 05:34:16;;;;;;;17.52;10.90;;;6.80;99.90;;;;;;5002901;28;20121;-70
2022/11/17 05:36:42;;;;;;;15.43;11.13;;;6.80;99.90;;;;;;5003210;28;20395;-70
2022/11/17 05:39:09;;;;;;;18.83;11.90;;;6.80;99.90;;;;;;4985386;28;20561;-70
2022/11/17 05:41:36;;;;;;;15.88;11.60;;;6.80;99.90;;;;;;5005629;28;20096;-70
2022/11/17 05:44:02;;;;;;;14.65;10.98;;;6.80;99.90;;;;;;5003952;28;20046;-71
2022/11/17 05:46:28;;;;;;;15.10;10.90;;;6.80;99.90;;;;;;4972748;28;20100;-70
2022/11/17 05:48:57;;;;;;;15.30;11.10;;;6.80;99.90;;;;;;5005239;28;20058;-71
2022/11/17 05:51:23;;;;;;;13.57;9.23;;;6.70;99.90;;;;;;5004316;28;20050;-70
2022/11/17 05:53:49;;;;;;;15.57;9.88;;;6.70;99.90;;;;;;5004327;28;20042;-70
2022/11/17 05:56:27;;;;;;;12.70;9.10;;;6.70;99.90;;;;;;4985364;28;20574;-70
2022/11/17 05:59:01;;;;;;;13.35;9.43;;;6.70;99.90;;;;;;5004179;28;20422;-71
2022/11/17 06:01:28;;;;;;;14.35;9.32;;;6.60;99.90;;;;;;4985922;28;20038;-70
2022/11/17 06:03:56;;;;;;;14.15;10.07;;;6.90;99.90;;;;;;4983763;28;20076;-71
2022/11/17 06:06:22;;;;;;;15.43;10.05;;;6.70;99.90;;;;;;4999827;28;20153;-70
2022/11/17 06:08:49;;;;;;;13.55;8.70;;;6.60;99.90;;;;;;4992335;28;20046;-69
2022/11/17 06:11:15;;;;;;;11.20;7.70;;;6.60;99.90;;;;;;4993875;28;20049;-71
2022/11/17 06:13:41;;;;;;;11.98;8.55;;;6.60;99.90;;;;;;4994667;28;20585;-71
2022/11/17 06:16:10;;;;;;;13.55;8.43;;;6.60;99.90;;;;;;4995167;28;20056;-70
2022/11/17 06:18:40;;;;;;;12.00;8.73;;;6.60;99.90;;;;;;4993447;28;20052;-70
2022/11/17 06:21:08;;;;;;;12.30;8.57;;;6.60;99.90;;;;;;4996709;28;20042;-71
2022/11/17 06:23:34;;;;;;;12.88;8.48;;;6.60;99.90;;;;;;4999664;28;20042;-71
2022/11/17 06:26:04;;;;;;;14.02;8.68;;;6.60;99.90;;;;;;4979922;28;20202;-70
2022/11/17 06:28:32;;;;;;;11.90;8.43;;;6.60;99.90;;;;;;4994272;28;20070;-70
2022/11/17 06:30:58;;;;;;;14.48;8.57;;;7.30;99.90;;;;;;4992940;28;20074;-71
2022/11/17 06:33:31;;;;;;;13.75;8.23;;;6.60;99.90;;;;;;4991856;28;20128;-71
2022/11/17 06:35:59;;;;;;;11.88;8.20;;;6.60;99.90;;;;;;4991523;28;20034;-71
2022/11/17 06:38:25;;;;;;;11.38;8.00;;;6.80;99.90;;;;;;4975065;28;20392;-70
2022/11/17 06:40:51;;;;;;;11.70;7.35;;;6.60;99.90;;;;;;4991261;28;20042;-70
2022/11/17 06:43:17;;;;;;;10.98;7.13;;;6.70;99.90;;;;;;4984319;28;20034;-70
2022/11/17 06:45:44;;;;;;;11.48;8.05;;;6.60;99.90;;;;;;4995104;28;21014;-70
2022/11/17 06:48:12;;;;;;;10.10;6.97;;;7.10;99.90;;;;;;5001789;28;20057;-69
2022/11/17 06:50:38;;;;;;;10.73;7.20;;;6.60;99.90;;;;;;5003499;28;20096;-70
2022/11/17 06:53:07;;;;;;;10.60;7.00;;;6.60;99.90;;;;;;5002939;28;20042;-71
2022/11/17 06:55:33;;;;;;;12.35;7.50;;;6.60;99.90;;;;;;4996617;28;20042;-71
2022/11/17 06:58:00;;;;;;;10.35;7.75;;;6.60;99.90;;;;;;4998342;28;20053;-70
2022/11/17 07:00:27;;;;;;;10.52;7.53;;;6.60;99.90;;;;;;4997346;28;20045;-71
2022/11/17 07:03:02;;;;;;;11.40;6.75;;;6.50;99.90;;;;;;5000377;28;20054;-70
2022/11/17 07:05:30;;;;;;;12.90;7.63;;;6.60;99.90;;;;;;4985953;28;20058;-70
2022/11/17 07:07:57;;;;;;;10.40;6.68;;;6.60;99.90;;;;;;5001721;28;20045;-72
2022/11/17 07:10:24;;;;;;;12.13;7.78;;;6.60;99.90;;;;;;5002902;28;20103;-72
2022/11/17 07:12:49;;;;;;;12.70;7.72;;;6.60;99.90;;;;;;5000713;28;20041;-70
2022/11/17 07:15:15;;;;;;;11.20;7.57;;;6.50;99.90;;;;;;4999703;28;20033;-72
2022/11/17 07:17:41;;;;;;;11.45;7.43;;;6.50;99.90;;;;;;4999647;28;20058;-72
2022/11/17 07:20:07;;;;;;;10.88;7.40;;;6.50;99.90;;;;;;4977126;28;20041;-71
2022/11/17 07:22:33;;;;;;;10.55;6.88;;;6.50;99.90;;;;;;4999893;28;20046;-72
2022/11/17 07:24:58;;;;;;;11.18;7.80;;;7.10;99.90;;;;;;5002690;28;20057;-72
2022/11/17 07:27:29;;;;;;;11.40;8.02;;;6.80;99.90;;;;;;4997795;28;20453;-71
2022/11/17 07:29:55;;;;;;;10.88;7.53;;;6.50;99.90;;;;;;4999983;28;20112;-70
2022/11/17 07:32:22;;;;;;;11.02;7.72;;;6.50;99.90;;;;;;4997226;28;21420;-72
2022/11/17 07:34:47;;;;;;;10.32;6.93;;;6.50;99.90;;;;;;4994871;28;20503;-71
2022/11/17 07:37:13;;;;;;;11.45;7.75;;;6.60;99.90;;;;;;4996048;28;20038;-70
2022/11/17 07:39:39;;;;;;;11.65;7.60;;;6.60;99.90;;;;;;4998280;28;20042;-71
2022/11/17 07:42:05;;;;;;;10.93;7.05;;;6.50;99.90;;;;;;4995678;28;20084;-69
2022/11/17 07:44:31;;;;;;;10.52;6.93;;;6.50;99.90;;;;;;4998799;28;20042;-70
2022/11/17 07:46:57;;;;;;;12.18;7.63;;;6.60;99.90;;;;;;4982984;28;20148;-70
2022/11/17 07:49:23;;;;;;;10.98;7.32;;;6.50;99.90;;;;;;5000120;28;20038;-71
2022/11/17 07:51:49;;;;;;;11.23;7.15;;;6.50;99.90;;;;;;4998566;28;20046;-71
2022/11/17 07:54:14;;;;;;;9.85;6.90;;;6.50;99.90;;;;;;4982083;28;20083;-69
2022/11/17 07:56:40;;;;;;;9.82;6.85;;;6.50;99.90;;;;;;4998914;28;20530;-69
2022/11/17 07:59:06;;;;;;;13.35;7.03;;;6.50;99.90;;;;;;4999973;28;20038;-69
2022/11/17 08:01:31;;;;;;;9.43;6.65;;;6.50;99.90;;;;;;5001555;28;20444;-69
2022/11/17 08:03:57;;;;;;;10.05;6.32;;;6.50;99.90;;;;;;4997757;28;20060;-70
2022/11/17 08:06:23;;;;;;;11.75;6.97;;;6.90;99.90;;;;;;4996191;28;20074;-69
2022/11/17 08:08:49;;;;;;;10.27;6.22;;;6.50;99.90;;;;;;4989953;28;20042;-70
2022/11/17 08:11:16;;;;;;;8.77;6.10;;;6.50;99.90;;;;;;4979448;28;20406;-69
2022/11/17 08:13:42;;;;;;;10.02;6.15;;;6.40;99.90;;;;;;4984822;28;20542;-69
2022/11/17 08:16:09;;;;;;;8.77;5.78;;;6.50;99.90;;;;;;5003153;28;20050;-69
2022/11/17 08:18:38;;;;;;;9.50;5.70;;;6.40;99.90;;;;;;4994965;28;21012;-69
2022/11/17 08:21:05;;;;;;;10.23;6.40;;;6.50;99.90;;;;;;4992196;28;20418;-69
2022/11/17 08:23:31;;;;;;;9.07;6.10;;;6.50;99.90;;;;;;4979942;28;20049;-69
2022/11/17 08:25:57;;;;;;;9.48;5.70;;;6.80;99.90;;;;;;4995616;28;20141;-69
2022/11/17 08:28:23;;;;;;;9.70;5.85;;;6.50;99.90;;;;;;4991680;28;20045;-70
2022/11/17 08:30:48;;;;;;;9.63;6.25;;;6.50;99.90;;;;;;4983728;28;20181;-70
2022/11/17 08:33:14;;;;;;;9.13;5.72;;;6.50;99.90;;;;;;5000146;28;20117;-69
2022/11/17 08:35:40;;;;;;;9.27;6.03;;;6.50;99.90;;;;;;4997680;28;20466;-69
2022/11/17 08:38:05;;;;;;;8.23;5.45;;;6.50;99.90;;;;;;4992328;28;20049;-70
2022/11/17 08:40:32;;;;;;;8.82;6.47;;;6.50;99.90;;;;;;4999382;28;20042;-71
2022/11/17 08:42:58;;;;;;;8.52;5.90;;;6.50;99.90;;;;;;4980902;28;20391;-70
2022/11/17 08:45:24;;;;;;;10.75;6.65;;;6.50;99.90;;;;;;4992584;28;20073;-70
2022/11/17 08:47:50;;;;;;;9.65;6.30;;;6.50;99.90;;;;;;4993321;28;20052;-71
2022/11/17 08:50:16;;;;;;;10.40;6.38;;;6.50;99.90;;;;;;5000760;28;20050;-70
2022/11/17 08:52:43;;;;;;;10.93;7.15;;;6.60;99.90;;;;;;4980085;28;20045;-69
2022/11/17 08:55:09;;;;;;;11.70;7.30;;;6.50;99.90;;;;;;4999167;28;20041;-69
2022/11/17 08:57:38;;;;;;;11.13;7.15;;;6.50;99.90;;;;;;4991292;28;20180;-69
2022/11/17 09:00:07;;;;;;;9.25;6.65;;;6.60;99.90;;;;;;4989756;28;20042;-69
2022/11/17 09:02:33;;;;;;;11.15;7.57;;;6.50;99.90;;;;;;4991064;28;20056;-69
2022/11/17 09:04:59;;;;;;;10.73;7.10;;;6.50;99.90;;;;;;4994017;28;20050;-68
2022/11/17 09:07:25;;;;;;;11.32;7.35;;;6.50;99.90;;;;;;4997812;28;20050;-69
2022/11/17 09:09:51;;;;;;;13.15;7.47;;;6.50;99.90;;;;;;4995403;28;20168;-68
2022/11/17 09:12:17;;;;;;;13.00;7.78;;;6.50;99.90;;;;;;4992191;28;20138;-69
2022/11/17 09:14:43;;;;;;;11.68;7.80;;;6.50;99.90;;;;;;4994341;28;20200;-69
2022/11/17 09:17:09;;;;;;;11.32;7.85;;;6.50;99.90;;;;;;4994423;28;20034;-69
2022/11/17 09:19:35;;;;;;;12.75;7.70;;;6.50;99.90;;;;;;4977765;28;20057;-68
2022/11/17 09:22:01;;;;;;;10.27;7.38;;;6.50;99.90;;;;;;4992141;28;20056;-69
2022/11/17 09:24:26;;;;;;;11.20;7.47;;;6.50;99.90;;;;;;4993612;28;20046;-69
2022/11/17 09:26:53;;;;;;;11.48;7.50;;;6.50;99.90;;;;;;4993865;28;20091;-70
2022/11/17 09:29:19;;;;;;;12.38;8.13;;;6.50;99.90;;;;;;4991899;28;20484;-69
2022/11/17 09:31:45;;;;;;;13.60;8.05;;;6.50;99.90;;;;;;4995021;28;20105;-69
2022/11/17 09:34:10;;;;;;;10.93;7.53;;;6.50;99.90;;;;;;4997762;28;20403;-69
2022/11/17 09:36:36;;;;;;;12.70;7.78;;;6.50;99.90;;;;;;4999191;28;20080;-69
2022/11/17 09:39:03;;;;;;;10.80;7.60;;;6.70;99.90;;;;;;4980294;28;20046;-69
2022/11/17 09:41:42;;;;;;;10.90;7.80;;;6.50;99.90;;;;;;4999235;28;20041;-69
2022/11/17 09:44:26;;;;;;;10.10;7.28;;;6.50;99.90;;;;;;5001892;28;20033;-69
2022/11/17 09:47:04;;;;;;;9.68;7.00;;;6.50;99.90;;;;;;4986988;28;20081;-69
2022/11/17 09:49:47;;;;;;;10.68;7.38;;;6.50;99.90;;;;;;5000637;28;20050;-70
2022/11/17 09:52:31;;;;;;;10.23;7.28;;;6.50;99.90;;;;;;5003623;28;20041;-70
2022/11/17 09:55:21;;;;;;;11.02;7.72;;;6.50;99.90;;;;;;5003327;28;20046;-70
2022/11/17 09:57:50;;;;;;;9.75;7.10;;;6.50;99.90;;;;;;4995683;28;20517;-69
2022/11/17 10:00:21;;;;;;;9.30;6.32;;;6.50;99.90;;;;;;5000330;28;20463;-69
2022/11/17 10:02:49;;;;;;;9.52;7.03;;;6.50;99.90;;;;;;4997969;28;20049;-69
2022/11/17 10:05:23;;;;;;;9.93;6.53;;;6.50;99.90;;;;;;4997264;28;20073;-70
2022/11/17 10:07:52;;;;;;;10.73;6.85;;;6.50;99.90;;;;;;4998695;28;20107;-70
2022/11/17 10:10:38;;;;;;;10.18;6.85;;;6.50;99.90;;;;;;5000191;28;20061;-69
2022/11/17 10:13:05;;;;;;;11.77;6.82;;;6.50;99.90;;;;;;4999667;28;20591;-71
2022/11/17 10:15:46;;;;;;;10.73;7.15;;;6.50;99.90;;;;;;4978138;28;20060;-71
2022/11/17 10:18:14;;;;;;;11.23;6.88;;;6.50;99.90;;;;;;4994579;28;20414;-71
2022/11/17 10:20:41;;;;;;;9.55;6.43;;;6.50;99.90;;;;;;4979109;28;20053;-70
2022/11/17 10:23:17;;;;;;;11.02;6.88;;;6.50;99.90;;;;;;4999428;28;20478;-69
2022/11/17 10:25:54;;;;;;;10.88;6.72;;;6.50;99.90;;;;;;4999908;28;20470;-70
2022/11/17 10:28:30;;;;;;;9.75;6.68;;;6.50;99.90;;;;;;4996176;28;20053;-69
2022/11/17 10:31:17;;;;;;;10.13;7.00;;;6.50;99.90;;;;;;4997019;28;20052;-69
2022/11/17 10:33:48;;;;;;;9.20;6.25;;;6.50;99.90;;;;;;4996877;28;20054;-69
2022/11/17 10:36:27;;;;;;;9.82;7.20;;;6.50;99.90;;;;;;4995578;28;20211;-70
2022/11/17 10:38:56;;;;;;;10.85;6.47;;;6.50;99.90;;;;;;5001997;28;20057;-69
2022/11/17 10:41:36;;;;;;;10.45;7.10;;;6.30;99.90;;;;;;5000632;28;20041;-69
2022/11/17 10:44:19;;;;;;;11.77;6.88;;;6.60;99.90;;;;;;4994622;28;20077;-69
2022/11/17 10:47:00;;;;;;;9.68;6.65;;;6.60;99.90;;;;;;4980991;28;20058;-69
2022/11/17 10:49:33;;;;;;;9.90;6.73;;;6.60;99.90;;;;;;4983868;28;20046;-68
2022/11/17 10:52:14;;;;;;;10.00;7.05;;;6.60;99.90;;;;;;4998978;28;20038;-70
2022/11/17 10:54:40;;;;;;;9.98;7.57;;;6.60;99.90;;;;;;4997820;28;20050;-69
2022/11/17 10:57:23;;;;;;;9.70;6.90;;;6.60;99.90;;;;;;4992040;28;20053;-70
2022/11/17 10:59:56;;;;;;;10.60;7.22;;;6.60;99.90;;;;;;4975199;28;20502;-70
2022/11/17 11:02:37;;;;;;;10.85;7.05;;;6.60;99.90;;;;;;4961741;28;20057;-70
2022/11/17 11:05:13;;;;;;;10.82;7.00;;;6.60;99.90;;;;;;4992427;28;20081;-70
2022/11/17 11:07:39;;;;;;;9.75;6.68;;;6.60;99.90;;;;;;4997436;28;20049;-69
2022/11/17 11:10:10;;;;;;;9.65;6.50;;;6.80;99.90;;;;;;4998974;28;20046;-69
2022/11/17 11:12:55;;;;;;;;;;;6.60;99.90;;;;;;4993006;28;20128;-70
2022/11/17 11:15:23;;;;;;;10.13;6.22;;;6.60;99.90;;;;;;4998234;28;19925;-69
2022/11/17 11:17:50;;;;;;;9.23;6.15;;;6.60;99.90;;;;;;4998520;28;20033;-70
2022/11/17 11:20:26;;;;;;;8.65;5.53;;;6.50;99.90;;;;;;4994465;28;20045;-69
2022/11/17 11:23:12;;;;;;;8.95;5.57;;;6.60;99.90;;;;;;5000471;28;20058;-68
2022/11/17 11:25:42;;;;;;;9.35;6.15;;;6.60;99.90;;;;;;4994728;28;20034;-70
2022/11/17 11:28:21;;;;;;;8.40;5.65;;;6.60;99.90;;;;;;4991475;28;20116;-69
2022/11/17 11:31:13;;;;;;;8.75;5.80;;;6.60;99.90;;;;;;4995170;28;20060;-70
2022/11/17 11:34:04;;;;;;;7.82;5.38;;;6.70;99.90;;;;;;4980293;28;20136;-70
2022/11/17 11:36:49;;;;;;;9.50;5.97;;;6.60;99.90;;;;;;4999025;28;20518;-69
2022/11/17 11:39:41;;;;;;;8.98;5.70;;;6.70;99.90;;;;;;4999557;28;20042;-68
2022/11/17 11:42:12;;;;;;;8.50;5.50;;;6.70;99.90;;;;;;4998335;28;20045;-71
2022/11/17 11:44:56;;;;;;;10.32;5.88;;;6.70;99.90;;;;;;5004717;28;20491;-70
2022/11/17 11:47:59;;;;;;;8.35;5.38;;;6.70;99.90;;;;;;5004653;28;20045;-69
2022/11/17 11:50:32;;;;;;;8.65;5.60;;;6.70;99.90;;;;;;4989009;28;20491;-69
2022/11/17 11:53:24;;;;;;;8.55;5.50;;;6.70;99.90;;;;;;5005136;28;20077;-69
2022/11/17 11:56:14;;;;;;;10.15;5.80;;;6.70;99.90;;;;;;4993483;28;20046;-70
2022/11/17 11:58:59;;;;;;;9.30;6.15;;;6.70;99.90;;;;;;4995702;28;20061;-70
2022/11/17 12:01:27;;;;;;;9.25;5.97;;;6.70;99.90;;;;;;5004715;28;20053;-69
2022/11/17 12:04:30;;;;;;;9.18;6.18;;;6.70;99.90;;;;;;4991206;28;20527;-69
2022/11/17 12:07:13;;;;;;;10.27;6.60;;;6.70;99.90;;;;;;4986873;28;20057;-69
2022/11/17 12:09:59;;;;;;;10.15;6.88;;;6.70;99.90;;;;;;4989777;28;20519;-69
2022/11/17 12:12:35;;;;;;;11.00;7.20;;;6.70;99.90;;;;;;5006444;28;20038;-70
2022/11/17 12:15:19;;;;;;;13.00;7.00;;;7.10;99.90;;;;;;5006711;28;20038;-69
2022/11/17 12:18:10;;;;;;;11.25;6.85;;;6.70;99.90;;;;;;5005679;28;20422;-69
2022/11/17 12:20:55;;;;;;;11.23;6.72;;;6.70;99.90;;;;;;5004011;28;20530;-69
2022/11/17 12:23:27;;;;;;;9.57;6.55;;;6.70;99.90;;;;;;5001663;28;20054;-69
2022/11/17 12:25:58;;;;;;;10.00;6.35;;;6.70;99.90;;;;;;5001829;28;20053;-69
2022/11/17 12:28:39;;;;;;;9.10;6.15;;;6.70;99.90;;;;;;5003354;28;20388;-70
2022/11/17 12:31:08;;;;;;;;;;;6.70;99.90;;;;;;5004331;28;20041;-68
2022/11/17 12:33:52;;;;;;;9.50;6.28;;;6.70;99.90;;;;;;4987562;28;20338;-69
2022/11/17 12:36:23;;;;;;;9.95;7.03;;;7.00;99.90;;;;;;5006272;28;20042;-69
2022/11/17 12:38:53;;;;;;;10.63;6.72;;;6.80;99.90;;;;;;5002838;28;20045;-69
2022/11/17 12:41:47;;;;;;;9.32;5.78;;;6.70;99.90;;;;;;5005223;28;20069;-69
2022/11/17 12:44:31;;;;;;;9.77;6.15;;;6.70;99.90;;;;;;5005918;28;20045;-69
2022/11/17 12:47:20;;;;;;;11.20;6.20;;;6.70;99.90;;;;;;4985804;28;20148;-69
2022/11/17 12:50:14;;;;;;;9.05;5.97;;;6.80;99.90;;;;;;5002442;28;20544;-69
2022/11/17 12:52:42;;;;;;;8.95;5.80;;;6.80;99.90;;;;;;5003806;28;20388;-68
2022/11/17 12:55:16;;;;;;;12.20;6.10;;;6.80;99.90;;;;;;4990550;28;20518;-69
2022/11/17 12:57:46;;;;;;;8.60;5.47;;;6.80;99.90;;;;;;5003290;28;20546;-69
2022/11/17 13:00:23;;;;;;;8.57;5.45;;;7.00;99.90;;;;;;5005991;28;20045;-68
2022/11/17 13:02:59;;;;;;;8.68;5.63;;;6.80;99.90;;;;;;5006332;28;20038;-68
2022/11/17 13:05:27;;;;;;;9.80;5.82;;;6.80;99.90;;;;;;5005630;28;20168;-69
2022/11/17 13:08:23;;;;;;;10.00;6.05;;;6.80;99.90;;;;;;5006301;28;20129;-70
2022/11/17 13:10:50;;;;;;;9.20;5.90;;;6.90;99.90;;;;;;5003817;28;20495;-70
2022/11/17 13:13:23;;;;;;;8.95;5.93;;;6.90;99.90;;;;;;5005397;28;20038;-69
2022/11/17 13:15:51;;;;;;;8.90;5.97;;;7.00;99.90;;;;;;5005013;28;20092;-70
2022/11/17 13:18:38;;;;;;;9.52;5.40;;;7.00;99.90;;;;;;5001732;28;20108;-70
2022/11/17 13:21:26;;;;;;;9.73;5.63;;;7.00;99.90;;;;;;4984942;28;20046;-69
2022/11/17 13:23:52;;;;;;;10.48;6.03;;;7.00;99.90;;;;;;5003764;28;20042;-70
2022/11/17 13:26:20;;;;;;;7.95;5.10;;;7.00;99.90;;;;;;5000297;28;20128;-69
2022/11/17 13:28:47;;;;;;;9.20;5.80;;;7.00;99.90;;;;;;5005349;28;20044;-70
2022/11/17 13:31:20;;;;;;;9.20;5.38;;;7.00;99.90;;;;;;5005893;28;20069;-70
2022/11/17 13:34:16;;;;;;;8.90;5.05;;;7.00;99.90;;;;;;5003309;28;20188;-69
2022/11/17 13:37:15;;;;;;;8.70;5.45;;;7.00;99.90;;;;;;4975318;28;20061;-71